Etusivu
METAR-TAF:

METAR-TAF

Lentoasemat :

Skagway, Alaska, Yhdysvallat

Leveyspiiri: 59-28N, Pituuspiiri: 135-18W, korkeus merenpinnasta: 16 m

Tämänhetkinen sää

Tämä raportti tehtiin 1 tunti ja 6 minuuttia sitten, kello 09.53 UTC
tyyntä
Lämpötila 5°C
Kosteus 87%
Ilmanpaine 1027 hPa
Näkyvyys: 16.1 km
Muutamia pilviä 3800 ft:n korkeudessa
Hajonneita pilviä 5000 ft:n korkeudessa
Pilvistä 8000 ft:n korkeudessa

METAR: PAGY 240953Z AUTO 00000KT 10SM FEW038 BKN050 OVC080 05/03 A3032 RMK AO2 RAB24E41 SLP266 P0000 T00500033 TSNO

Aika: 02:59 (10:59 UTC)

Sääennuste

Tämä raportti tehtiin 5 tuntia ja 28 minuuttia sitten, kello 05.31 UTC
Ennuste voimassa 24. päivästä klo 06 UTC - 25. päivään klo 06 UTC
Tuuli 3 kn koillisesta
Näkyvyys: 10 km
Hajanaisia pilviä 7000 ft:n korkeudessa
Hajonneita pilviä 10000 ft:n korkeudessa

TAF: PAGY 240531Z 2406/2506 04003KT P6SM SCT070 BKN100 AMD LTD TO CLD VIS AND WIND

Säähavainnot ja -ennusteet yli 4000 lentoasemalta (METAR- ja TAF-raportit).

Käytössä olevat sääasemat on merkitty karttaan keltaisilla ja punaisilla pisteillä.

Aseta hiiri pisteen päälle nähdäksesi sääaseman nimen.

Klikkaa sitten nähdäksesi säähavainnot ja -ennusteet.

Kartan vaihtaminen: klikkaa mustalla rastilla varustettuja vihreitä pisteitä, niin voit zoomata sisään; viivalla varustettua vihreää pistettä, niin voit zoomata ulos tai vihreitä nuolia, niin pääset viereisille kartoille.


METAR-TAF: